Terminal Aerodrome Forecast
Issued by NWS

Home | Current Version | Previous Version | Text Only | Print | Product List | Glossary On
Versions: 1 2 3 4 5 6 7 8 9 10 11 12 13 14 15 16 17 18 19 20 21 22
875
FTUS43 KILX 190836 AAB
TAFDEC
TAF AMD
KDEC 190836Z 1909/2006 19016KT P6SM VCTS OVC015CB
      TEMPO 1909/1910 6SM TSRA
     FM191000 19014G23KT P6SM VCSH OVC015 WS015/19050KT
     FM191200 19014G25KT 2SM SHRA OVC008
     FM191800 20018G28KT 5SM -SHRA VCTS OVC012CB
     FM200000 19015G27KT 2SM SHRA VCTS OVC008CB=

USA.gov is the U.S. government's official web portal to all federal, state and local government web resources and services.